Time;durP1;ratioP1;P1;durP2;ratioP2;P2;SDS_P1;SDS_P2;PMS_P1;PMS_P2;Temp;Humidity;BMP_temperature;BMP_pressure;BME280_temperature;BME280_humidity;BME280_pressure;Samples;Min_cycle;Max_cycle;Signal;HPM_P1;HPM_P2
2021/11/21 00:00:25;;;;;;;24.30;16.60;;;;;;;10.21;100.00;101485.56;4937667;29;20027;-69
2021/11/21 00:03:11;;;;;;;22.83;16.65;;;;;;;9.67;100.00;101483.06;4938280;29;20050;-69
2021/11/21 00:05:57;;;;;;;23.25;16.20;;;;;;;10.12;100.00;101477.72;4922430;29;20098;-68
2021/11/21 00:08:42;;;;;;;22.58;17.15;;;;;;;10.08;100.00;101483.84;4938248;29;20059;-68
2021/11/21 00:11:28;;;;;;;21.73;16.23;;;;;;;10.19;100.00;101479.44;4936551;29;20035;-68
2021/11/21 00:14:14;;;;;;;23.60;16.70;;;;;;;10.04;100.00;101471.59;4923903;29;20383;-68
2021/11/21 00:17:02;;;;;;;22.88;16.65;;;;;;;9.86;100.00;101466.44;4938359;29;20024;-68
2021/11/21 00:19:48;;;;;;;22.73;17.13;;;;;;;10.01;100.00;101462.03;4935340;29;20442;-68
2021/11/21 00:22:35;;;;;;;24.13;16.38;;;;;;;9.82;100.00;101467.31;4937023;29;20027;-68
2021/11/21 00:25:21;;;;;;;22.90;17.30;;;;;;;9.36;100.00;101466.53;4935317;29;20039;-69
2021/11/21 00:28:07;;;;;;;22.75;16.55;;;;;;;10.09;100.00;101467.28;4936918;29;20102;-69
2021/11/21 00:30:53;;;;;;;24.50;16.67;;;;;;;9.70;100.00;101468.19;4937223;29;20034;-69
2021/11/21 00:33:39;;;;;;;22.17;16.90;;;;;;;9.64;100.00;101469.97;4923862;29;20039;-68
2021/11/21 00:36:25;;;;;;;24.98;17.20;;;;;;;9.95;100.00;101469.03;4935261;29;20055;-69
2021/11/21 00:39:11;;;;;;;24.23;17.08;;;;;;;9.85;100.00;101462.09;4937085;29;20032;-68
2021/11/21 00:41:56;;;;;;;25.25;16.80;;;;;;;9.92;100.00;101463.78;4937299;29;20151;-67
2021/11/21 00:44:43;;;;;;;25.38;16.30;;;;;;;9.93;100.00;101460.31;4936004;29;20028;-68
2021/11/21 00:47:29;;;;;;;23.33;17.27;;;;;;;9.92;100.00;101463.78;4937163;29;20095;-69
2021/11/21 00:50:15;;;;;;;23.00;16.00;;;;;;;9.91;100.00;101462.94;4937552;29;20420;-68
2021/11/21 00:53:03;;;;;;;23.38;15.93;;;;;;;9.82;100.00;101454.25;4937969;29;20040;-68
2021/11/21 00:56:22;;;;;;;23.65;16.45;;;;;;;9.82;100.00;101462.09;4935538;29;20434;-69
2021/11/21 00:59:01;;;;;;;23.27;15.77;;;;;;;10.13;100.00;101446.31;4937647;29;20066;-68
2021/11/21 01:01:51;;;;;;;21.05;15.85;;;;;;;9.89;100.00;101456.81;4936733;29;20031;-68
2021/11/21 01:04:41;;;;;;;24.27;16.17;;;;;;;9.61;100.00;101463.00;4937778;29;20039;-68
2021/11/21 01:07:27;;;;;;;21.90;16.63;;;;;;;9.46;100.00;101457.81;4936727;29;20032;-69
2021/11/21 01:10:16;;;;;;;21.42;16.17;;;;;;;9.47;100.00;101461.28;4937891;29;20035;-69
2021/11/21 01:13:03;;;;;;;20.63;15.30;;;;;;;9.60;100.00;101460.38;4923366;29;20134;-68
2021/11/21 01:15:49;;;;;;;24.38;16.77;;;;;;;9.64;100.00;101457.75;4922650;29;20110;-68
2021/11/21 01:18:36;;;;;;;24.63;16.65;;;;;;;9.62;100.00;101458.66;4923337;29;20473;-68
2021/11/21 01:21:22;;;;;;;22.27;16.08;;;;;;;9.81;100.00;101450.75;4936181;29;20024;-68
2021/11/21 01:24:07;;;;;;;23.40;15.93;;;;;;;9.97;100.00;101446.34;4937337;29;20038;-69
2021/11/21 01:26:53;;;;;;;21.98;16.52;;;;;;;9.35;100.00;101445.59;4936858;29;20050;-69
2021/11/21 01:29:39;;;;;;;24.02;16.67;;;;;;;9.70;100.00;101435.97;4937176;29;20382;-68
2021/11/21 01:32:28;;;;;;;22.52;16.67;;;;;;;9.70;100.00;101434.19;4936401;29;20039;-69
2021/11/21 01:35:14;;;;;;;22.48;16.48;;;;;;;9.84;100.00;101434.16;4937526;29;20043;-68
2021/11/21 01:38:03;;;;;;;20.05;15.63;;;;;;;9.75;100.00;101427.22;4925976;29;20052;-69
2021/11/21 01:40:49;;;;;;;23.35;15.88;;;;;;;9.44;100.00;101424.66;4940146;29;20446;-69
2021/11/21 01:43:34;;;;;;;22.73;16.10;;;;;;;9.72;100.00;101414.13;4940522;29;20031;-68
2021/11/21 01:46:31;;;;;;;25.10;16.15;;;;;;;9.63;100.00;101411.56;4940054;29;20410;-69
2021/11/21 01:49:17;;;;;;;23.60;15.82;;;;;;;9.58;100.00;101408.09;4940502;29;20024;-68
2021/11/21 01:52:03;;;;;;;24.27;16.25;;;;;;;9.42;100.00;101421.19;4939974;29;20094;-69
2021/11/21 01:54:49;;;;;;;22.80;16.08;;;;;;;9.47;100.00;101409.84;4939793;29;20074;-68
2021/11/21 01:57:35;;;;;;;26.27;16.17;;;;;;;9.79;100.00;101415.88;4939837;29;20106;-69
2021/11/21 02:00:22;;;;;;;21.90;15.50;;;;;;;9.99;100.00;101408.81;4940256;29;20034;-68
2021/11/21 02:03:08;;;;;;;21.27;15.63;;;;;;;10.00;100.00;101407.03;4926519;29;20063;-69
2021/11/21 02:05:54;;;;;;;21.40;15.93;;;;;;;9.95;100.00;101408.81;4925997;29;20035;-69
2021/11/21 02:08:41;;;;;;;21.42;15.13;;;;;;;9.77;100.00;101417.59;4939632;29;20024;-69
2021/11/21 02:11:27;;;;;;;22.13;15.55;;;;;;;9.95;100.00;101412.31;4940563;29;20028;-68
2021/11/21 02:14:13;;;;;;;22.85;15.73;;;;;;;9.69;100.00;101410.69;4939472;29;20082;-68
2021/11/21 02:16:59;;;;;;;21.13;14.88;;;;;;;9.82;100.00;101418.44;4939402;29;20070;-69
2021/11/21 02:19:45;;;;;;;21.83;15.68;;;;;;;9.21;100.00;101411.63;4939174;29;20027;-68
2021/11/21 02:22:30;;;;;;;23.25;16.45;;;;;;;9.50;100.00;101407.22;4926123;29;20027;-67
2021/11/21 02:25:16;;;;;;;21.05;15.73;;;;;;;9.12;100.00;101415.97;4939155;29;20027;-69
2021/11/21 02:28:03;;;;;;;27.35;16.40;;;;;;;9.13;100.00;101418.59;4939504;29;20028;-68
2021/11/21 02:30:50;;;;;;;21.95;15.95;;;;;;;9.50;100.00;101419.44;4938691;29;20039;-68
2021/11/21 02:33:36;;;;;;;26.00;16.13;;;;;;;9.40;100.00;101420.31;4940013;29;20031;-68
2021/11/21 02:36:23;;;;;;;21.35;15.90;;;;;;;9.70;100.00;101415.03;4938959;29;20071;-69
2021/11/21 02:39:09;;;;;;;22.17;16.20;;;;;;;9.71;100.00;101422.88;4939191;29;20458;-68
2021/11/21 02:41:55;;;;;;;19.42;15.18;;;;;;;9.62;100.00;101417.63;4939340;29;20359;-68
2021/11/21 02:44:40;;;;;;;20.85;15.70;;;;;;;9.34;100.00;101415.97;4939803;29;20478;-69
2021/11/21 02:47:33;;;;;;;22.00;16.35;;;;;;;9.81;100.00;101418.50;4939247;29;20425;-68
2021/11/21 02:50:23;;;;;;;21.42;15.85;;;;;;;9.50;100.00;101415.09;4938858;29;20031;-68
2021/11/21 02:53:08;;;;;;;20.10;14.98;;;;;;;9.56;100.00;101415.06;4939303;29;20431;-69
2021/11/21 02:55:56;;;;;;;21.88;16.08;;;;;;;9.98;100.00;101407.06;4939129;29;20066;-68
2021/11/21 02:58:44;;;;;;;20.95;15.32;;;;;;;9.71;100.00;101399.31;4938727;29;20414;-69
2021/11/21 03:01:29;;;;;;;20.08;15.57;;;;;;;9.96;100.00;101410.56;4937953;29;20032;-68
2021/11/21 03:04:15;;;;;;;24.08;16.60;;;;;;;9.73;100.00;101402.78;4938807;29;20509;-69
2021/11/21 03:07:01;;;;;;;21.85;15.90;;;;;;;9.63;100.00;101414.16;4938902;29;20028;-68
2021/11/21 03:09:49;;;;;;;24.20;16.88;;;;;;;9.52;100.00;101408.09;4938929;29;20028;-68
2021/11/21 03:12:35;;;;;;;22.13;15.90;;;;;;;9.65;100.00;101401.94;4924914;29;20118;-68
2021/11/21 03:15:21;;;;;;;23.42;16.75;;;;;;;9.40;100.00;101404.59;4938751;29;20024;-68
2021/11/21 03:18:07;;;;;;;25.40;17.23;;;;;;;9.71;100.00;101404.56;4938565;29;20115;-69
2021/11/21 03:20:52;;;;;;;25.55;17.63;;;;;;;9.40;100.00;101399.38;4938199;29;20027;-68
2021/11/21 03:23:40;;;;;;;24.48;17.33;;;;;;;8.89;100.00;101389.00;4937784;29;20035;-68
2021/11/21 03:26:29;;;;;;;24.75;17.30;;;;;;;9.14;100.00;101385.50;4938382;29;20024;-68
2021/11/21 03:29:14;;;;;;;23.65;16.83;;;;;;;9.29;100.00;101395.94;4938741;29;20403;-68
2021/11/21 03:32:01;;;;;;;28.30;17.98;;;;;;;9.33;100.00;101377.59;4937652;29;20035;-68
2021/11/21 03:34:46;;;;;;;24.95;17.30;;;;;;;9.33;100.00;101382.00;4939126;29;20023;-69
2021/11/21 03:37:33;;;;;;;25.38;17.45;;;;;;;9.19;100.00;101381.13;4924300;29;20040;-68
2021/11/21 03:40:19;;;;;;;23.13;16.55;;;;;;;9.11;100.00;101378.53;4937642;29;20031;-69
2021/11/21 03:43:05;;;;;;;25.95;17.52;;;;;;;9.14;100.00;101378.53;4937941;29;20036;-69
2021/11/21 03:45:50;;;;;;;29.10;18.38;;;;;;;9.30;100.00;101375.03;4937921;29;20031;-69
2021/11/21 03:48:36;;;;;;;24.67;17.38;;;;;;;9.15;100.00;101372.44;4937756;29;20122;-68
2021/11/21 03:51:22;;;;;;;26.88;18.02;;;;;;;9.23;100.00;101375.91;4923859;29;20079;-68
2021/11/21 03:54:08;;;;;;;24.42;17.52;;;;;;;9.42;100.00;101366.28;4938414;29;20111;-68
2021/11/21 03:56:53;;;;;;;24.88;17.00;;;;;;;9.09;100.00;101374.19;4936663;29;20130;-69
2021/11/21 03:59:39;;;;;;;25.63;17.70;;;;;;;8.97;100.00;101374.19;4937595;29;20027;-69
2021/11/21 04:02:25;;;;;;;25.90;18.35;;;;;;;9.10;100.00;101374.19;4937793;29;20366;-68
2021/11/21 04:05:13;;;;;;;28.42;17.65;;;;;;;9.04;100.00;101365.44;4937646;29;20080;-69
2021/11/21 04:07:59;;;;;;;25.13;18.05;;;;;;;9.16;100.00;101374.16;4937333;29;20484;-68
2021/11/21 04:10:45;;;;;;;25.00;18.33;;;;;;;9.29;100.00;101362.78;4937486;29;20066;-68
2021/11/21 04:13:31;;;;;;;26.20;17.70;;;;;;;9.07;100.00;101366.34;4936265;29;20124;-69
2021/11/21 04:16:17;;;;;;;25.08;17.52;;;;;;;9.20;100.00;101370.66;4937842;29;20522;-68
2021/11/21 04:19:04;;;;;;;28.08;18.42;;;;;;;8.87;100.00;101373.31;4937825;29;20451;-69
2021/11/21 04:21:50;;;;;;;26.27;18.15;;;;;;;8.68;100.00;101368.09;4936524;29;20027;-68
2021/11/21 04:24:35;;;;;;;25.23;17.27;;;;;;;8.72;100.00;101368.06;4935781;29;20020;-69
2021/11/21 04:27:21;;;;;;;28.98;17.98;;;;;;;8.91;100.00;101366.34;4936154;29;20035;-68
2021/11/21 04:30:11;;;;;;;28.27;17.77;;;;;;;9.22;100.00;101366.31;4922897;29;20510;-68
2021/11/21 04:32:57;;;;;;;30.17;19.20;;;;;;;8.99;100.00;101361.97;4937242;29;20039;-69
2021/11/21 04:35:43;;;;;;;23.88;17.08;;;;;;;9.08;100.00;101361.94;4937047;29;20411;-68
2021/11/21 04:38:28;;;;;;;26.08;18.38;;;;;;;8.92;100.00;101371.56;4936862;29;20474;-68
2021/11/21 04:41:14;;;;;;;28.70;19.25;;;;;;;9.03;100.00;101364.59;4937306;29;20050;-69
2021/11/21 04:44:02;;;;;;;25.27;18.13;;;;;;;8.73;100.00;101353.28;4936328;29;20031;-68
2021/11/21 04:46:48;;;;;;;29.02;19.13;;;;;;;8.88;100.00;101356.75;4935259;29;20061;-68
2021/11/21 04:49:34;;;;;;;29.70;18.60;;;;;;;8.58;100.00;101353.28;4936841;29;20034;-68
2021/11/21 04:52:20;;;;;;;26.13;18.00;;;;;;;8.93;100.00;101356.75;4936460;29;20034;-68
2021/11/21 04:55:07;;;;;;;27.55;19.23;;;;;;;9.01;100.00;101355.03;4936713;29;20034;-68
2021/11/21 04:57:54;;;;;;;27.15;18.65;;;;;;;9.23;100.00;101352.38;4923566;29;20062;-68
2021/11/21 05:00:40;;;;;;;28.77;18.80;;;;;;;9.19;100.00;101348.03;4936263;29;20087;-68
2021/11/21 05:03:26;;;;;;;29.20;18.05;;;;;;;8.95;100.00;101355.00;4937008;29;20071;-68
2021/11/21 05:06:12;;;;;;;26.42;18.13;;;;;;;8.92;100.00;101357.66;4936867;29;20062;-69
2021/11/21 05:08:58;;;;;;;25.88;18.30;;;;;;;8.91;100.00;101353.25;4937362;29;20039;-68
2021/11/21 05:11:44;;;;;;;29.38;18.88;;;;;;;9.05;100.00;101357.59;4938958;29;20047;-67
2021/11/21 05:14:30;;;;;;;26.85;17.83;;;;;;;9.07;100.00;101365.44;4940763;29;20032;-68
2021/11/21 05:17:16;;;;;;;25.80;18.23;;;;;;;8.96;100.00;101364.63;4927347;29;20465;-68
2021/11/21 05:20:03;;;;;;;26.45;18.10;;;;;;;9.29;100.00;101364.56;4938825;29;20032;-68
2021/11/21 05:22:49;;;;;;;28.05;18.83;;;;;;;9.06;100.00;101361.09;4940201;29;20090;-69
2021/11/21 05:25:35;;;;;;;25.33;17.83;;;;;;;8.95;100.00;101355.00;4940150;29;20027;-68
2021/11/21 05:28:20;;;;;;;27.00;18.63;;;;;;;8.94;100.00;101350.66;4941310;29;20038;-69
2021/11/21 05:31:06;;;;;;;30.00;20.23;;;;;;;8.87;100.00;101354.13;4940153;29;20078;-69
2021/11/21 05:33:52;;;;;;;27.88;19.23;;;;;;;9.09;100.00;101350.66;4940317;29;20038;-68
2021/11/21 05:36:38;;;;;;;30.20;19.92;;;;;;;9.19;100.00;101349.75;4940064;29;20172;-68
2021/11/21 05:39:24;;;;;;;29.65;20.20;;;;;;;9.34;100.00;101342.75;4940621;29;20039;-68
2021/11/21 05:42:10;;;;;;;28.70;20.15;;;;;;;9.09;100.00;101345.44;4926674;29;20036;-69
2021/11/21 05:44:55;;;;;;;27.25;19.25;;;;;;;9.05;100.00;101343.69;4940539;29;20035;-68
2021/11/21 05:47:41;;;;;;;27.67;19.35;;;;;;;9.33;100.00;101345.38;4940278;29;20023;-68
2021/11/21 05:50:27;;;;;;;27.88;19.55;;;;;;;9.21;100.00;101340.19;4926842;29;20415;-68
2021/11/21 05:53:13;;;;;;;29.83;19.42;;;;;;;9.27;100.00;101341.03;4939896;29;20115;-69
2021/11/21 05:55:58;;;;;;;28.15;18.90;;;;;;;8.98;100.00;101344.56;4926645;29;20034;-68
2021/11/21 05:58:45;;;;;;;30.42;19.45;;;;;;;9.16;100.00;101334.94;4926833;29;20036;-68
2021/11/21 06:01:31;;;;;;;30.02;20.63;;;;;;;8.96;100.00;101330.63;4939741;29;20474;-69
2021/11/21 06:04:16;;;;;;;31.48;21.08;;;;;;;9.07;100.00;101331.47;4926912;29;20035;-69
2021/11/21 06:07:02;;;;;;;29.40;19.15;;;;;;;8.91;100.00;101340.19;4940042;29;20242;-69
2021/11/21 06:09:48;;;;;;;29.50;19.77;;;;;;;9.09;100.00;101329.75;4940096;29;20039;-69
2021/11/21 06:12:34;;;;;;;28.27;19.23;;;;;;;9.12;100.00;101335.81;4926028;29;20103;-68
2021/11/21 06:15:20;;;;;;;27.17;19.00;;;;;;;9.13;100.00;101328.88;4940174;29;20110;-68
2021/11/21 06:18:06;;;;;;;29.55;20.15;;;;;;;8.81;100.00;101328.88;4938336;29;20462;-68
2021/11/21 06:20:51;;;;;;;29.35;19.70;;;;;;;9.37;100.00;101321.81;4939417;29;20086;-69
2021/11/21 06:23:37;;;;;;;28.20;19.27;;;;;;;9.49;100.00;101324.38;4938812;29;20342;-68
2021/11/21 06:26:23;;;;;;;32.65;19.60;;;;;;;9.45;100.00;101324.41;4938026;29;20024;-69
2021/11/21 06:29:09;;;;;;;25.27;18.58;;;;;;;9.43;100.00;101334.00;4939071;29;20067;-70
2021/11/21 06:31:55;;;;;;;31.33;20.77;;;;;;;9.34;100.00;101342.75;4939001;29;20119;-69
2021/11/21 06:34:41;;;;;;;34.03;22.70;;;;;;;9.25;100.00;101345.38;4939262;29;20466;-67
2021/11/21 06:37:27;;;;;;;36.72;23.15;;;;;;;9.46;100.00;101347.06;4937062;29;20143;-68
2021/11/21 06:40:14;;;;;;;32.60;21.65;;;;;;;9.25;100.00;101352.38;4939274;29;20036;-68
2021/11/21 06:43:00;;;;;;;32.50;21.75;;;;;;;9.32;100.00;101351.47;4938889;29;20379;-69
2021/11/21 06:45:46;;;;;;;34.53;21.27;;;;;;;8.92;100.00;101353.28;4939594;29;20036;-68
2021/11/21 06:48:34;;;;;;;30.55;20.27;;;;;;;9.28;100.00;101361.06;4923013;29;20110;-69
2021/11/21 06:51:19;;;;;;;35.95;20.52;;;;;;;9.48;100.00;101351.44;4938878;29;20399;-69
2021/11/21 06:54:06;;;;;;;31.27;20.58;;;;;;;8.99;100.00;101360.25;4924123;29;20110;-69
2021/11/21 06:56:51;;;;;;;33.85;21.00;;;;;;;9.41;100.00;101347.06;4938699;29;20032;-68
2021/11/21 06:59:38;;;;;;;32.28;21.23;;;;;;;9.71;100.00;101349.59;4925380;29;20031;-69
2021/11/21 07:02:24;;;;;;;32.80;23.08;;;;;;;9.46;100.00;101344.47;4938523;29;20062;-69
2021/11/21 07:05:10;;;;;;;30.42;20.92;;;;;;;9.70;100.00;101336.53;4925632;29;20031;-68
2021/11/21 07:07:55;;;;;;;29.90;20.77;;;;;;;9.95;100.00;101338.16;4938870;29;20055;-68
2021/11/21 07:10:41;;;;;;;29.38;20.35;;;;;;;9.54;100.00;101340.06;4923863;29;20090;-68
2021/11/21 07:13:27;;;;;;;29.13;20.60;;;;;;;9.99;100.00;101332.91;4938717;29;20027;-69
2021/11/21 07:16:12;;;;;;;29.08;19.73;;;;;;;9.90;100.00;101326.84;4937908;29;20038;-70
2021/11/21 07:18:58;;;;;;;25.08;18.48;;;;;;;9.68;100.00;101327.78;4923494;29;20099;-69
2021/11/21 07:21:45;;;;;;;25.75;18.05;;;;;;;9.56;100.00;101318.25;4924984;29;20101;-68
2021/11/21 07:24:31;;;;;;;27.77;18.88;;;;;;;9.96;100.00;101324.19;4924703;29;20051;-67
2021/11/21 07:27:17;;;;;;;27.05;19.33;;;;;;;9.70;100.00;101308.59;4938485;29;20067;-69
2021/11/21 07:30:03;;;;;;;29.42;18.23;;;;;;;10.22;100.00;101308.34;4924192;29;20023;-68
2021/11/21 07:32:50;;;;;;;25.95;18.35;;;;;;;10.35;100.00;101308.25;4937745;29;20086;-69
2021/11/21 07:35:36;;;;;;;27.85;18.70;;;;;;;10.67;100.00;101315.84;4924537;29;20101;-68
2021/11/21 07:38:23;;;;;;;27.77;18.92;;;;;;;11.32;100.00;101305.59;4938416;29;20044;-68
2021/11/21 07:41:08;;;;;;;30.27;18.10;;;;;;;11.78;100.00;101312.94;4937388;29;20105;-69
2021/11/21 07:43:54;;;;;;;26.25;18.65;;;;;;;12.02;100.00;101299.47;4937671;29;20070;-68
2021/11/21 07:46:41;;;;;;;25.00;17.73;;;;;;;12.57;100.00;101299.50;4937926;29;20118;-68
2021/11/21 07:49:26;;;;;;;23.90;16.25;;;;;;;12.56;100.00;101298.66;4937668;29;20043;-69
2021/11/21 07:52:13;;;;;;;20.40;15.10;;;;;;;13.00;100.00;101296.16;4936859;29;20032;-69
2021/11/21 07:54:59;;;;;;;19.52;14.57;;;;;;;13.01;100.00;101292.63;4937465;29;20027;-68
2021/11/21 07:57:44;;;;;;;21.35;14.55;;;;;;;12.79;100.00;101299.16;4937802;29;20034;-70
2021/11/21 08:00:30;;;;;;;19.25;14.07;;;;;;;13.30;100.00;101298.22;4936519;29;20038;-69
2021/11/21 08:03:16;;;;;;;18.63;14.32;;;;;;;13.15;100.00;101302.91;4937978;29;20035;-69
2021/11/21 08:06:02;;;;;;;20.67;15.07;;;;;;;13.11;100.00;101293.34;4938245;29;20447;-69
2021/11/21 08:08:48;;;;;;;20.25;15.15;;;;;;;12.43;100.00;101302.38;4937560;29;20047;-70
2021/11/21 08:11:34;;;;;;;18.85;14.93;;;;;;;13.05;100.00;101293.44;4923275;29;20059;-69
2021/11/21 08:14:19;;;;;;;18.73;14.80;;;;;;;13.63;100.00;101299.31;4938028;29;20031;-68
2021/11/21 08:17:05;;;;;;;19.05;14.55;;;;;;;13.32;100.00;101285.03;4937881;29;20032;-69
2021/11/21 08:19:51;;;;;;;22.65;15.10;;;;;;;13.06;100.00;101292.56;4937112;29;20043;-69
2021/11/21 08:22:37;;;;;;;17.88;14.15;;;;;;;13.33;100.00;101279.72;4938203;29;20063;-69
2021/11/21 08:25:23;;;;;;;21.02;13.95;;;;;;;12.79;100.00;101274.59;4935750;29;20031;-70
2021/11/21 08:28:10;;;;;;;19.77;14.38;;;;;;;13.59;100.00;101274.78;4936498;29;20045;-68
2021/11/21 08:30:56;;;;;;;20.50;14.48;;;;;;;13.74;100.00;101266.56;4923326;29;20443;-69
2021/11/21 08:33:42;;;;;;;22.55;15.10;;;;;;;13.75;100.00;101273.56;4937542;29;20115;-69
2021/11/21 08:36:28;;;;;;;20.48;15.15;;;;;;;13.03;100.00;101259.25;4936841;29;20547;-68
2021/11/21 08:39:13;;;;;;;23.48;14.20;;;;;;;13.59;100.00;101258.16;4936269;29;20098;-68
2021/11/21 08:41:59;;;;;;;17.50;13.60;;;;;;;13.81;100.00;101265.56;4937400;29;20028;-68
2021/11/21 08:44:45;;;;;;;20.00;14.30;;;;;;;13.68;100.00;101258.81;4938116;29;20043;-69
2021/11/21 08:47:31;;;;;;;18.17;13.27;;;;;;;13.32;100.00;101256.06;4943611;29;20047;-69
2021/11/21 08:50:17;;;;;;;19.45;14.38;;;;;;;13.59;100.00;101251.09;4943628;29;20039;-69
2021/11/21 08:53:03;;;;;;;16.08;12.63;;;;;;;13.10;100.00;101249.50;4930070;29;20430;-68
2021/11/21 08:55:49;;;;;;;18.65;13.20;;;;;;;13.17;100.00;101245.84;4943094;29;20038;-68
2021/11/21 08:58:35;;;;;;;18.90;13.57;;;;;;;13.13;100.00;101242.41;4944381;29;20055;-68
2021/11/21 09:01:20;;;;;;;16.90;12.75;;;;;;;13.08;100.00;101231.13;4943016;29;20039;-68
2021/11/21 09:04:06;;;;;;;17.92;12.77;;;;;;;13.49;100.00;101231.16;4943435;29;20042;-69
2021/11/21 09:06:52;;;;;;;16.25;11.90;;;;;;;13.62;100.00;101227.34;4942671;29;20031;-69
2021/11/21 09:09:38;;;;;;;17.52;12.10;;;;;;;13.24;100.00;101222.03;4943208;29;20034;-69
2021/11/21 09:12:24;;;;;;;20.63;12.45;;;;;;;13.44;100.00;101219.84;4943025;29;20031;-69
2021/11/21 09:15:16;;;;;;;16.25;12.10;;;;;;;13.90;100.00;101204.75;4943525;29;20031;-69
2021/11/21 09:18:02;;;;;;;15.25;12.02;;;;;;;13.95;100.00;101200.25;4943436;29;20339;-69
2021/11/21 09:20:48;;;;;;;15.27;12.00;;;;;;;14.06;100.00;101198.22;4929164;29;20034;-67
2021/11/21 09:23:34;;;;;;;15.32;11.48;;;;;;;14.13;100.00;101191.91;4943266;29;20514;-69
2021/11/21 09:26:20;;;;;;;15.25;11.90;;;;;;;14.32;100.00;101185.28;4929465;29;20063;-69
2021/11/21 09:29:05;;;;;;;13.27;11.20;;;;;;;13.25;100.00;101180.78;4943250;29;20024;-69
2021/11/21 09:31:51;;;;;;;15.32;11.77;;;;;;;13.00;100.00;101182.19;4942784;29;20118;-68
2021/11/21 09:34:38;;;;;;;14.90;11.10;;;;;;;12.90;100.00;101172.72;4942943;29;20031;-68
2021/11/21 09:37:24;;;;;;;14.43;11.55;;;;;;;12.90;100.00;101168.31;4941595;29;20069;-68
2021/11/21 09:40:12;;;;;;;13.20;10.10;;;;;;;13.70;100.00;101162.22;4942059;29;20038;-69
2021/11/21 09:43:00;;;;;;;13.98;11.00;;;;;;;13.81;100.00;101160.19;4942321;29;20035;-69
2021/11/21 09:45:46;;;;;;;14.20;11.18;;;;;;;13.55;100.00;101159.91;4942762;29;20023;-69
2021/11/21 09:48:33;;;;;;;15.30;11.38;;;;;;;13.79;100.00;101148.81;4942830;29;20410;-68
2021/11/21 09:51:21;;;;;;;15.35;11.32;;;;;;;13.75;100.00;101144.53;4942000;29;20043;-68
2021/11/21 09:54:07;;;;;;;12.85;10.50;;;;;;;13.87;100.00;101135.50;4942773;29;20348;-69
2021/11/21 09:56:53;;;;;;;16.20;10.95;;;;;;;14.28;100.00;101122.16;4940797;29;20496;-68
2021/11/21 09:59:53;;;;;;;14.23;10.88;;;;;;;14.11;100.00;101122.56;4939839;29;20027;-68
2021/11/21 10:02:42;;;;;;;13.68;11.25;;;;;;;14.38;100.00;101121.88;4940102;29;20035;-69
2021/11/21 10:05:30;;;;;;;14.07;10.95;;;;;;;14.42;100.00;101112.09;4939749;29;20038;-69
2021/11/21 10:08:21;;;;;;;14.38;11.52;;;;;;;14.06;100.00;101106.00;4926144;29;20035;-69
2021/11/21 10:11:08;;;;;;;15.43;11.35;;;;;;;14.21;100.00;101102.16;4939780;29;20063;-68
2021/11/21 10:14:03;;;;;;;14.82;11.38;;;;;;;14.61;100.00;101101.03;4939347;29;20039;-69
2021/11/21 10:16:48;;;;;;;15.52;11.52;;;;;;;14.75;100.00;101092.72;4939442;29;20053;-68
2021/11/21 10:19:34;;;;;;;15.32;10.93;;;;;;;14.93;100.00;101091.31;4938623;29;20096;-68
2021/11/21 10:22:20;;;;;;;14.70;10.70;;;;;;;15.67;100.00;101087.28;4939398;29;20032;-68
2021/11/21 10:25:06;;;;;;;14.18;11.32;;;;;;;15.35;100.00;101096.22;4939254;29;20328;-68
2021/11/21 10:28:04;;;;;;;14.57;11.20;;;;;;;14.70;100.00;101079.69;4938077;29;20036;-69
2021/11/21 10:31:15;;;;;;;16.02;11.57;;;;;;;14.92;100.00;101072.00;4939336;29;20199;-69
2021/11/21 10:34:04;;;;;;;15.25;10.93;;;;;;;15.71;100.00;101073.06;4939928;29;20031;-69
2021/11/21 10:36:49;;;;;;;16.60;11.35;;;;;;;14.97;100.00;101069.22;4939343;29;20044;-69
2021/11/21 10:39:45;;;;;;;13.90;10.98;;;;;;;15.09;100.00;101060.94;4939124;29;20378;-70
2021/11/21 10:42:31;;;;;;;14.02;11.00;;;;;;;14.19;100.00;101059.13;4939033;29;20057;-68
2021/11/21 10:45:43;;;;;;;15.60;11.50;;;;;;;15.16;100.00;101044.88;4925893;29;20028;-69
2021/11/21 10:48:29;;;;;;;15.52;12.32;;;;;;;15.40;100.00;101052.06;4938917;29;20108;-70
2021/11/21 10:51:24;;;;;;;13.75;11.25;;;;;;;15.68;100.00;101044.09;4925578;29;20366;-70
2021/11/21 10:54:22;;;;;;;18.50;12.13;;;;;;;14.74;100.00;101044.41;4925273;29;20063;-70
2021/11/21 10:57:11;;;;;;;17.83;13.02;;;;;;;15.88;100.00;101034.63;4938907;29;20035;-70
2021/11/21 10:59:59;;;;;;;15.02;11.60;;;;;;;16.09;100.00;101025.94;4925536;29;20020;-70
2021/11/21 11:02:46;;;;;;;15.70;12.05;;;;;;;16.35;100.00;101025.84;4925468;29;20023;-70
2021/11/21 11:05:33;;;;;;;16.75;11.55;;;;;;;16.77;100.00;101020.81;4938677;29;20474;-72
2021/11/21 11:08:27;;;;;;;15.57;11.25;;;;;;;17.03;100.00;101016.22;4923647;29;20059;-71
2021/11/21 11:11:13;;;;;;;17.98;12.45;;;;;;;16.97;99.77;101007.66;4925038;29;20032;-70
2021/11/21 11:13:58;;;;;;;18.65;11.50;;;;;;;16.56;100.00;101013.69;4938744;29;20027;-70
2021/11/21 11:16:49;;;;;;;17.90;12.75;;;;;;;16.71;100.00;101003.38;4938496;29;20027;-72
2021/11/21 11:19:36;;;;;;;17.23;12.80;;;;;;;15.73;100.00;100991.97;4938018;29;20374;-70
2021/11/21 11:22:23;;;;;;;16.88;11.80;;;;;;;16.58;100.00;100996.81;4938558;29;20053;-69
2021/11/21 11:25:17;;;;;;;13.57;11.35;;;;;;;16.76;100.00;100985.53;4938067;29;20069;-70
2021/11/21 11:28:24;;;;;;;14.48;11.82;;;;;;;16.94;97.67;100989.25;4925338;29;20071;-70
2021/11/21 11:31:27;;;;;;;13.98;11.63;;;;;;;17.15;97.48;100976.03;4924286;29;20102;-71
2021/11/21 11:34:33;;;;;;;17.60;13.55;;;;;;;16.62;97.69;100987.84;4938237;29;20134;-70
2021/11/21 11:37:43;;;;;;;22.90;15.95;;;;;;;16.46;100.00;100977.91;4924135;29;20063;-70
2021/11/21 11:40:57;;;;;;;23.75;14.75;;;;;;;16.66;98.39;100968.31;4924204;29;20102;-71
2021/11/21 11:43:47;;;;;;;21.67;14.75;;;;;;;16.15;100.00;100964.91;4937176;29;20038;-71
2021/11/21 11:46:35;;;;;;;18.23;13.48;;;;;;;15.78;100.00;100960.97;4924434;29;20426;-70
2021/11/21 11:49:39;;;;;;;18.83;13.57;;;;;;;16.96;98.69;100945.91;4937660;29;20063;-69
2021/11/21 11:52:50;;;;;;;16.48;12.60;;;;;;;16.31;100.00;100950.22;4938647;29;20043;-71
2021/11/21 11:55:36;;;;;;;15.07;11.95;;;;;;;16.33;100.00;100955.44;4938080;29;20020;-69
2021/11/21 11:58:46;;;;;;;17.98;11.80;;;;;;;16.95;96.41;100948.63;4938502;29;20034;-70
2021/11/21 12:01:31;;;;;;;15.18;11.15;;;;;;;17.02;96.75;100947.47;4937396;29;20042;-70
2021/11/21 12:04:17;;;;;;;14.52;11.07;;;;;;;17.45;92.23;100952.78;4923539;29;20036;-70
2021/11/21 12:07:18;;;;;;;14.30;10.98;;;;;;;17.37;91.91;100941.59;4937328;29;20031;-71
2021/11/21 12:10:07;;;;;;;13.38;9.55;;;;;;;16.23;100.00;100935.56;4937823;29;20119;-70
2021/11/21 12:13:04;;;;;;;13.90;10.40;;;;;;;16.97;93.81;100933.56;4937224;29;20060;-69
2021/11/21 12:15:54;;;;;;;12.00;10.30;;;;;;;16.96;93.13;100932.69;4936975;29;20035;-71
2021/11/21 12:18:54;;;;;;;14.43;9.65;;;;;;;16.30;99.12;100934.38;4937394;29;20071;-71
2021/11/21 12:21:45;;;;;;;11.73;9.43;;;;;;;16.33;97.36;100921.06;4937080;29;20067;-70
2021/11/21 12:24:32;;;;;;;14.13;9.52;;;;;;;16.65;94.58;100923.38;4936163;29;20031;-70
2021/11/21 12:27:22;;;;;;;13.65;9.80;;;;;;;15.95;99.63;100913.69;4937534;29;20114;-69
2021/11/21 12:30:12;;;;;;;14.23;10.52;;;;;;;16.33;99.11;100910.50;4922978;29;20031;-70
2021/11/21 12:33:06;;;;;;;13.32;10.45;;;;;;;16.43;97.64;100904.81;4922717;29;20102;-70
2021/11/21 12:35:53;;;;;;;17.02;11.20;;;;;;;16.92;93.97;100901.13;4937144;29;20374;-70
2021/11/21 12:38:38;;;;;;;15.15;10.50;;;;;;;16.67;95.60;100892.41;4936944;29;20028;-70